sensor_id;sensor_type;location;lat;lon;timestamp;temperature;humidity
75161;DHT22;67232;50.096;8.716;2023-04-24T00:01:39;14.90;76.30
75161;DHT22;67232;50.096;8.716;2023-04-24T00:04:06;14.70;76.70
75161;DHT22;67232;50.096;8.716;2023-04-24T00:06:32;14.90;76.60
75161;DHT22;67232;50.096;8.716;2023-04-24T00:08:59;15.00;76.50
75161;DHT22;67232;50.096;8.716;2023-04-24T00:11:26;14.90;76.50
75161;DHT22;67232;50.096;8.716;2023-04-24T00:13:52;14.90;76.50
75161;DHT22;67232;50.096;8.716;2023-04-24T00:16:17;14.80;76.90
75161;DHT22;67232;50.096;8.716;2023-04-24T00:18:45;14.70;77.10
75161;DHT22;67232;50.096;8.716;2023-04-24T00:21:13;14.80;77.00
75161;DHT22;67232;50.096;8.716;2023-04-24T00:23:39;14.70;77.20
75161;DHT22;67232;50.096;8.716;2023-04-24T00:26:07;14.80;76.90
75161;DHT22;67232;50.096;8.716;2023-04-24T00:28:32;14.70;77.00
75161;DHT22;67232;50.096;8.716;2023-04-24T00:30:58;14.80;76.90
75161;DHT22;67232;50.096;8.716;2023-04-24T00:33:23;14.70;77.10
75161;DHT22;67232;50.096;8.716;2023-04-24T00:35:49;14.80;76.90
75161;DHT22;67232;50.096;8.716;2023-04-24T00:38:17;14.80;76.90
75161;DHT22;67232;50.096;8.716;2023-04-24T00:40:44;14.80;76.80
75161;DHT22;67232;50.096;8.716;2023-04-24T00:43:10;14.80;76.80
75161;DHT22;67232;50.096;8.716;2023-04-24T00:45:37;14.70;76.80
75161;DHT22;67232;50.096;8.716;2023-04-24T00:48:04;14.80;76.40
75161;DHT22;67232;50.096;8.716;2023-04-24T00:50:32;14.80;76.30
75161;DHT22;67232;50.096;8.716;2023-04-24T00:52:58;14.70;76.40
75161;DHT22;67232;50.096;8.716;2023-04-24T00:55:24;14.70;76.30
75161;DHT22;67232;50.096;8.716;2023-04-24T00:57:51;14.80;75.90
75161;DHT22;67232;50.096;8.716;2023-04-24T01:00:16;14.90;75.70
75161;DHT22;67232;50.096;8.716;2023-04-24T01:02:43;14.80;75.40
75161;DHT22;67232;50.096;8.716;2023-04-24T01:05:11;14.90;75.50
75161;DHT22;67232;50.096;8.716;2023-04-24T01:07:41;14.80;75.40
75161;DHT22;67232;50.096;8.716;2023-04-24T01:10:09;14.70;75.50
75161;DHT22;67232;50.096;8.716;2023-04-24T01:12:35;14.60;75.70
75161;DHT22;67232;50.096;8.716;2023-04-24T01:15:03;14.50;76.00
75161;DHT22;67232;50.096;8.716;2023-04-24T01:17:29;14.60;75.90
75161;DHT22;67232;50.096;8.716;2023-04-24T01:19:55;14.70;75.80
75161;DHT22;67232;50.096;8.716;2023-04-24T01:22:22;14.80;75.50
75161;DHT22;67232;50.096;8.716;2023-04-24T01:24:50;14.70;75.90
75161;DHT22;67232;50.096;8.716;2023-04-24T01:27:16;14.70;75.70
75161;DHT22;67232;50.096;8.716;2023-04-24T01:29:41;14.60;75.80
75161;DHT22;67232;50.096;8.716;2023-04-24T01:32:07;14.50;76.10
75161;DHT22;67232;50.096;8.716;2023-04-24T01:34:38;14.50;76.20
75161;DHT22;67232;50.096;8.716;2023-04-24T01:37:03;14.40;76.50
75161;DHT22;67232;50.096;8.716;2023-04-24T01:39:30;14.30;76.70
75161;DHT22;67232;50.096;8.716;2023-04-24T01:41:59;14.40;76.70
75161;DHT22;67232;50.096;8.716;2023-04-24T01:44:26;14.50;76.40
75161;DHT22;67232;50.096;8.716;2023-04-24T01:46:56;14.50;76.40
75161;DHT22;67232;50.096;8.716;2023-04-24T01:49:22;14.50;76.50
75161;DHT22;67232;50.096;8.716;2023-04-24T01:51:47;14.50;76.50
75161;DHT22;67232;50.096;8.716;2023-04-24T01:54:18;14.40;76.60
75161;DHT22;67232;50.096;8.716;2023-04-24T01:56:48;14.40;76.50
75161;DHT22;67232;50.096;8.716;2023-04-24T01:59:17;14.40;76.70
75161;DHT22;67232;50.096;8.716;2023-04-24T02:01:42;14.40;76.50
75161;DHT22;67232;50.096;8.716;2023-04-24T02:04:10;14.40;76.90
75161;DHT22;67232;50.096;8.716;2023-04-24T02:06:39;14.50;76.40
75161;DHT22;67232;50.096;8.716;2023-04-24T02:09:10;14.40;76.60
75161;DHT22;67232;50.096;8.716;2023-04-24T02:11:36;14.50;76.60
75161;DHT22;67232;50.096;8.716;2023-04-24T02:14:01;14.50;76.30
75161;DHT22;67232;50.096;8.716;2023-04-24T02:16:29;14.30;76.40
75161;DHT22;67232;50.096;8.716;2023-04-24T02:18:58;14.20;76.80
75161;DHT22;67232;50.096;8.716;2023-04-24T02:21:24;14.40;76.60
75161;DHT22;67232;50.096;8.716;2023-04-24T02:23:52;14.40;76.60
75161;DHT22;67232;50.096;8.716;2023-04-24T02:26:17;14.30;76.60
75161;DHT22;67232;50.096;8.716;2023-04-24T02:28:43;14.10;76.80
75161;DHT22;67232;50.096;8.716;2023-04-24T02:31:09;14.10;77.00
75161;DHT22;67232;50.096;8.716;2023-04-24T02:33:34;14.20;76.90
75161;DHT22;67232;50.096;8.716;2023-04-24T02:36:01;14.20;77.00
75161;DHT22;67232;50.096;8.716;2023-04-24T02:38:27;14.00;77.10
75161;DHT22;67232;50.096;8.716;2023-04-24T02:40:55;14.10;77.20
75161;DHT22;67232;50.096;8.716;2023-04-24T02:43:27;13.90;77.60
75161;DHT22;67232;50.096;8.716;2023-04-24T02:45:55;14.00;77.50
75161;DHT22;67232;50.096;8.716;2023-04-24T02:48:21;13.90;77.60
75161;DHT22;67232;50.096;8.716;2023-04-24T02:50:46;14.10;77.30
75161;DHT22;67232;50.096;8.716;2023-04-24T02:53:12;14.10;77.30
75161;DHT22;67232;50.096;8.716;2023-04-24T02:55:38;14.30;77.20
75161;DHT22;67232;50.096;8.716;2023-04-24T02:58:06;14.20;77.30
75161;DHT22;67232;50.096;8.716;2023-04-24T03:00:36;14.10;77.30
75161;DHT22;67232;50.096;8.716;2023-04-24T03:03:01;14.30;77.10
75161;DHT22;67232;50.096;8.716;2023-04-24T03:05:29;14.10;77.40
75161;DHT22;67232;50.096;8.716;2023-04-24T03:07:56;13.90;77.80
75161;DHT22;67232;50.096;8.716;2023-04-24T03:10:22;14.10;77.50
75161;DHT22;67232;50.096;8.716;2023-04-24T03:12:55;14.10;77.40
75161;DHT22;67232;50.096;8.716;2023-04-24T03:15:21;14.10;77.40
75161;DHT22;67232;50.096;8.716;2023-04-24T03:17:47;14.20;77.40
75161;DHT22;67232;50.096;8.716;2023-04-24T03:20:13;14.20;77.30
75161;DHT22;67232;50.096;8.716;2023-04-24T03:22:39;14.10;77.50
75161;DHT22;67232;50.096;8.716;2023-04-24T03:25:07;14.20;77.50
75161;DHT22;67232;50.096;8.716;2023-04-24T03:27:34;14.10;77.80
75161;DHT22;67232;50.096;8.716;2023-04-24T03:30:02;14.00;77.90
75161;DHT22;67232;50.096;8.716;2023-04-24T03:32:28;14.00;78.00
75161;DHT22;67232;50.096;8.716;2023-04-24T03:34:57;13.90;78.10
75161;DHT22;67232;50.096;8.716;2023-04-24T03:37:23;13.90;78.30
75161;DHT22;67232;50.096;8.716;2023-04-24T03:39:48;13.90;78.30
75161;DHT22;67232;50.096;8.716;2023-04-24T03:42:16;13.80;78.50
75161;DHT22;67232;50.096;8.716;2023-04-24T03:44:41;13.80;78.50
75161;DHT22;67232;50.096;8.716;2023-04-24T03:47:12;13.90;78.70
75161;DHT22;67232;50.096;8.716;2023-04-24T03:49:37;13.80;78.60
75161;DHT22;67232;50.096;8.716;2023-04-24T03:52:05;13.60;79.00
75161;DHT22;67232;50.096;8.716;2023-04-24T03:54:30;13.70;79.20
75161;DHT22;67232;50.096;8.716;2023-04-24T03:57:01;13.60;79.50
75161;DHT22;67232;50.096;8.716;2023-04-24T03:59:30;13.70;79.50
75161;DHT22;67232;50.096;8.716;2023-04-24T04:01:58;13.70;79.80
75161;DHT22;67232;50.096;8.716;2023-04-24T04:04:24;13.70;79.50
75161;DHT22;67232;50.096;8.716;2023-04-24T04:06:49;13.90;79.50
75161;DHT22;67232;50.096;8.716;2023-04-24T04:09:15;13.90;79.30
75161;DHT22;67232;50.096;8.716;2023-04-24T04:11:40;14.00;79.30
75161;DHT22;67232;50.096;8.716;2023-04-24T04:14:06;13.80;79.70
75161;DHT22;67232;50.096;8.716;2023-04-24T04:16:32;13.80;79.70
75161;DHT22;67232;50.096;8.716;2023-04-24T04:18:57;13.80;79.50
75161;DHT22;67232;50.096;8.716;2023-04-24T04:21:26;13.60;79.70
75161;DHT22;67232;50.096;8.716;2023-04-24T04:23:52;13.70;79.20
75161;DHT22;67232;50.096;8.716;2023-04-24T04:26:18;13.70;79.00
75161;DHT22;67232;50.096;8.716;2023-04-24T04:28:46;13.50;79.30
75161;DHT22;67232;50.096;8.716;2023-04-24T04:31:15;13.50;79.20
75161;DHT22;67232;50.096;8.716;2023-04-24T04:33:41;13.70;78.60
75161;DHT22;67232;50.096;8.716;2023-04-24T04:36:06;13.60;78.60
75161;DHT22;67232;50.096;8.716;2023-04-24T04:38:33;13.80;78.50
75161;DHT22;67232;50.096;8.716;2023-04-24T04:40:58;13.80;78.20
75161;DHT22;67232;50.096;8.716;2023-04-24T04:43:27;13.70;78.20
75161;DHT22;67232;50.096;8.716;2023-04-24T04:45:52;13.50;77.90
75161;DHT22;67232;50.096;8.716;2023-04-24T04:48:26;13.40;77.70
75161;DHT22;67232;50.096;8.716;2023-04-24T04:50:52;13.50;77.90
75161;DHT22;67232;50.096;8.716;2023-04-24T04:53:22;13.60;77.70
75161;DHT22;67232;50.096;8.716;2023-04-24T04:55:51;13.70;77.10
75161;DHT22;67232;50.096;8.716;2023-04-24T04:58:16;13.50;76.70
75161;DHT22;67232;50.096;8.716;2023-04-24T05:00:42;13.50;76.70
75161;DHT22;67232;50.096;8.716;2023-04-24T05:03:10;13.40;76.60
75161;DHT22;67232;50.096;8.716;2023-04-24T05:05:47;13.40;76.80
75161;DHT22;67232;50.096;8.716;2023-04-24T05:08:13;13.60;75.90
75161;DHT22;67232;50.096;8.716;2023-04-24T05:10:38;13.50;75.80
75161;DHT22;67232;50.096;8.716;2023-04-24T05:13:04;13.50;75.10
75161;DHT22;67232;50.096;8.716;2023-04-24T05:15:30;13.50;75.20
75161;DHT22;67232;50.096;8.716;2023-04-24T05:17:57;13.60;74.20
75161;DHT22;67232;50.096;8.716;2023-04-24T05:20:23;13.50;73.80
75161;DHT22;67232;50.096;8.716;2023-04-24T05:22:53;13.20;74.20
75161;DHT22;67232;50.096;8.716;2023-04-24T05:25:19;13.20;74.70
75161;DHT22;67232;50.096;8.716;2023-04-24T05:27:45;13.30;74.30
75161;DHT22;67232;50.096;8.716;2023-04-24T05:30:12;13.30;73.50
75161;DHT22;67232;50.096;8.716;2023-04-24T05:32:40;13.30;73.10
75161;DHT22;67232;50.096;8.716;2023-04-24T05:35:08;13.30;70.20
75161;DHT22;67232;50.096;8.716;2023-04-24T05:37:34;13.40;69.70
75161;DHT22;67232;50.096;8.716;2023-04-24T05:39:59;13.40;68.70
75161;DHT22;67232;50.096;8.716;2023-04-24T05:42:29;13.50;67.70
75161;DHT22;67232;50.096;8.716;2023-04-24T05:44:55;13.30;67.20
75161;DHT22;67232;50.096;8.716;2023-04-24T05:47:20;13.30;65.30
75161;DHT22;67232;50.096;8.716;2023-04-24T05:49:48;13.20;63.20
75161;DHT22;67232;50.096;8.716;2023-04-24T05:52:14;13.30;63.00
75161;DHT22;67232;50.096;8.716;2023-04-24T05:54:39;13.40;63.60
75161;DHT22;67232;50.096;8.716;2023-04-24T05:57:07;13.70;62.90
75161;DHT22;67232;50.096;8.716;2023-04-24T05:59:36;14.00;63.00
75161;DHT22;67232;50.096;8.716;2023-04-24T06:02:02;13.90;63.40
75161;DHT22;67232;50.096;8.716;2023-04-24T06:04:27;14.10;63.80
75161;DHT22;67232;50.096;8.716;2023-04-24T06:06:53;14.00;63.60
75161;DHT22;67232;50.096;8.716;2023-04-24T06:09:22;14.00;65.00
75161;DHT22;67232;50.096;8.716;2023-04-24T06:11:50;14.30;64.50
75161;DHT22;67232;50.096;8.716;2023-04-24T06:14:19;14.30;64.80
75161;DHT22;67232;50.096;8.716;2023-04-24T06:16:45;14.00;65.50
75161;DHT22;67232;50.096;8.716;2023-04-24T06:19:12;14.00;66.20
75161;DHT22;67232;50.096;8.716;2023-04-24T06:21:40;14.10;66.50
75161;DHT22;67232;50.096;8.716;2023-04-24T06:24:08;14.10;67.00
75161;DHT22;67232;50.096;8.716;2023-04-24T06:26:36;14.00;66.70
75161;DHT22;67232;50.096;8.716;2023-04-24T06:29:02;13.90;66.60
75161;DHT22;67232;50.096;8.716;2023-04-24T06:31:27;13.90;66.60
75161;DHT22;67232;50.096;8.716;2023-04-24T06:33:53;14.10;65.70
75161;DHT22;67232;50.096;8.716;2023-04-24T06:36:21;14.00;66.10
75161;DHT22;67232;50.096;8.716;2023-04-24T06:38:47;14.00;66.00
75161;DHT22;67232;50.096;8.716;2023-04-24T06:41:12;14.20;66.80
75161;DHT22;67232;50.096;8.716;2023-04-24T06:43:38;14.40;65.80
75161;DHT22;67232;50.096;8.716;2023-04-24T06:46:03;14.70;66.10
75161;DHT22;67232;50.096;8.716;2023-04-24T06:48:29;14.50;65.50
75161;DHT22;67232;50.096;8.716;2023-04-24T06:50:55;14.50;65.40
75161;DHT22;67232;50.096;8.716;2023-04-24T06:53:23;14.50;66.10
75161;DHT22;67232;50.096;8.716;2023-04-24T06:55:51;14.30;66.10
75161;DHT22;67232;50.096;8.716;2023-04-24T06:58:17;14.50;65.90
75161;DHT22;67232;50.096;8.716;2023-04-24T07:00:43;14.40;66.20
75161;DHT22;67232;50.096;8.716;2023-04-24T07:03:08;14.10;66.80
75161;DHT22;67232;50.096;8.716;2023-04-24T07:05:37;14.30;66.80
75161;DHT22;67232;50.096;8.716;2023-04-24T07:08:07;14.40;66.50
75161;DHT22;67232;50.096;8.716;2023-04-24T07:10:34;14.40;66.40
75161;DHT22;67232;50.096;8.716;2023-04-24T07:13:01;14.30;66.30
75161;DHT22;67232;50.096;8.716;2023-04-24T07:15:29;14.20;66.80
75161;DHT22;67232;50.096;8.716;2023-04-24T07:17:55;14.50;66.70
75161;DHT22;67232;50.096;8.716;2023-04-24T07:20:25;14.70;66.50
75161;DHT22;67232;50.096;8.716;2023-04-24T07:22:51;14.90;65.90
75161;DHT22;67232;50.096;8.716;2023-04-24T07:25:19;15.00;65.40
75161;DHT22;67232;50.096;8.716;2023-04-24T07:27:47;15.00;64.70
75161;DHT22;67232;50.096;8.716;2023-04-24T07:30:14;15.00;64.80
75161;DHT22;67232;50.096;8.716;2023-04-24T07:32:39;14.90;64.50
75161;DHT22;67232;50.096;8.716;2023-04-24T07:35:08;15.00;64.30
75161;DHT22;67232;50.096;8.716;2023-04-24T07:37:35;14.80;64.00
75161;DHT22;67232;50.096;8.716;2023-04-24T07:40:03;14.70;63.90
75161;DHT22;67232;50.096;8.716;2023-04-24T07:42:29;14.60;64.40
75161;DHT22;67232;50.096;8.716;2023-04-24T07:44:56;14.60;65.10
75161;DHT22;67232;50.096;8.716;2023-04-24T07:47:26;14.80;64.60
75161;DHT22;67232;50.096;8.716;2023-04-24T07:49:54;15.20;64.30
75161;DHT22;67232;50.096;8.716;2023-04-24T07:52:20;15.40;63.50
75161;DHT22;67232;50.096;8.716;2023-04-24T07:54:45;15.60;62.10
75161;DHT22;67232;50.096;8.716;2023-04-24T07:57:11;15.40;61.30
75161;DHT22;67232;50.096;8.716;2023-04-24T07:59:36;15.40;61.20
75161;DHT22;67232;50.096;8.716;2023-04-24T08:02:04;15.70;61.30
75161;DHT22;67232;50.096;8.716;2023-04-24T08:04:33;16.20;61.30
75161;DHT22;67232;50.096;8.716;2023-04-24T08:06:59;16.30;60.90
75161;DHT22;67232;50.096;8.716;2023-04-24T08:09:25;16.30;60.50
75161;DHT22;67232;50.096;8.716;2023-04-24T08:11:55;16.20;61.20
75161;DHT22;67232;50.096;8.716;2023-04-24T08:14:21;16.00;60.50
75161;DHT22;67232;50.096;8.716;2023-04-24T08:16:47;15.70;60.40
75161;DHT22;67232;50.096;8.716;2023-04-24T08:19:18;15.60;60.60
75161;DHT22;67232;50.096;8.716;2023-04-24T08:21:45;15.60;60.30
75161;DHT22;67232;50.096;8.716;2023-04-24T08:24:15;15.50;60.70
75161;DHT22;67232;50.096;8.716;2023-04-24T08:26:45;15.40;60.70
75161;DHT22;67232;50.096;8.716;2023-04-24T08:29:16;15.60;60.50
75161;DHT22;67232;50.096;8.716;2023-04-24T08:31:43;16.00;60.20
75161;DHT22;67232;50.096;8.716;2023-04-24T08:34:12;16.20;60.00
75161;DHT22;67232;50.096;8.716;2023-04-24T08:36:38;16.40;59.00
75161;DHT22;67232;50.096;8.716;2023-04-24T08:39:08;16.50;59.00
75161;DHT22;67232;50.096;8.716;2023-04-24T08:41:34;16.40;59.40
75161;DHT22;67232;50.096;8.716;2023-04-24T08:44:02;16.80;56.90
75161;DHT22;67232;50.096;8.716;2023-04-24T08:46:28;17.00;56.90
75161;DHT22;67232;50.096;8.716;2023-04-24T08:48:55;17.10;57.90
75161;DHT22;67232;50.096;8.716;2023-04-24T08:51:22;17.20;57.60
75161;DHT22;67232;50.096;8.716;2023-04-24T08:53:51;17.30;57.10
75161;DHT22;67232;50.096;8.716;2023-04-24T08:56:19;16.80;57.00
75161;DHT22;67232;50.096;8.716;2023-04-24T08:58:51;16.40;58.10
75161;DHT22;67232;50.096;8.716;2023-04-24T09:01:21;16.50;58.00
75161;DHT22;67232;50.096;8.716;2023-04-24T09:03:51;16.10;58.40
75161;DHT22;67232;50.096;8.716;2023-04-24T09:06:20;15.70;59.80
75161;DHT22;67232;50.096;8.716;2023-04-24T09:08:47;15.50;59.90
75161;DHT22;67232;50.096;8.716;2023-04-24T09:11:14;15.30;61.20
75161;DHT22;67232;50.096;8.716;2023-04-24T09:13:43;15.00;61.70
75161;DHT22;67232;50.096;8.716;2023-04-24T09:16:13;14.70;62.60
75161;DHT22;67232;50.096;8.716;2023-04-24T09:18:42;14.70;62.50
75161;DHT22;67232;50.096;8.716;2023-04-24T09:21:08;14.80;63.10
75161;DHT22;67232;50.096;8.716;2023-04-24T09:23:34;14.70;63.10
75161;DHT22;67232;50.096;8.716;2023-04-24T09:26:02;14.40;63.60
75161;DHT22;67232;50.096;8.716;2023-04-24T09:28:34;14.50;64.00
75161;DHT22;67232;50.096;8.716;2023-04-24T09:31:08;14.60;64.10
75161;DHT22;67232;50.096;8.716;2023-04-24T09:33:34;14.30;64.40
75161;DHT22;67232;50.096;8.716;2023-04-24T09:36:00;14.20;64.10
75161;DHT22;67232;50.096;8.716;2023-04-24T09:38:32;14.30;64.60
75161;DHT22;67232;50.096;8.716;2023-04-24T09:41:03;14.30;64.40
75161;DHT22;67232;50.096;8.716;2023-04-24T09:43:30;14.20;64.00
75161;DHT22;67232;50.096;8.716;2023-04-24T09:45:57;14.30;64.40
75161;DHT22;67232;50.096;8.716;2023-04-24T09:48:36;14.30;64.10
75161;DHT22;67232;50.096;8.716;2023-04-24T09:51:05;14.00;64.70
75161;DHT22;67232;50.096;8.716;2023-04-24T09:53:32;13.80;65.00
75161;DHT22;67232;50.096;8.716;2023-04-24T09:56:10;14.10;65.10
75161;DHT22;67232;50.096;8.716;2023-04-24T09:58:38;13.90;65.30
75161;DHT22;67232;50.096;8.716;2023-04-24T10:01:04;14.20;65.40
75161;DHT22;67232;50.096;8.716;2023-04-24T10:03:30;14.30;64.90
75161;DHT22;67232;50.096;8.716;2023-04-24T10:06:00;14.30;65.50
75161;DHT22;67232;50.096;8.716;2023-04-24T10:08:26;14.70;64.90
75161;DHT22;67232;50.096;8.716;2023-04-24T10:10:54;14.50;64.40
75161;DHT22;67232;50.096;8.716;2023-04-24T10:13:20;14.40;64.70
75161;DHT22;67232;50.096;8.716;2023-04-24T10:15:48;14.40;65.10
75161;DHT22;67232;50.096;8.716;2023-04-24T10:18:17;14.50;64.50
75161;DHT22;67232;50.096;8.716;2023-04-24T10:20:43;14.50;64.80
75161;DHT22;67232;50.096;8.716;2023-04-24T10:23:09;14.50;65.10
75161;DHT22;67232;50.096;8.716;2023-04-24T10:25:35;14.50;65.30
75161;DHT22;67232;50.096;8.716;2023-04-24T10:28:02;14.60;65.40
75161;DHT22;67232;50.096;8.716;2023-04-24T10:30:33;14.60;65.50
75161;DHT22;67232;50.096;8.716;2023-04-24T10:33:04;14.70;65.70
75161;DHT22;67232;50.096;8.716;2023-04-24T10:35:40;14.70;65.60
75161;DHT22;67232;50.096;8.716;2023-04-24T10:38:09;14.50;67.00
75161;DHT22;67232;50.096;8.716;2023-04-24T10:40:36;14.30;68.80
75161;DHT22;67232;50.096;8.716;2023-04-24T10:43:07;14.40;69.90
75161;DHT22;67232;50.096;8.716;2023-04-24T10:45:35;14.30;69.60
75161;DHT22;67232;50.096;8.716;2023-04-24T10:48:08;14.20;70.20
75161;DHT22;67232;50.096;8.716;2023-04-24T10:50:51;14.30;70.40
75161;DHT22;67232;50.096;8.716;2023-04-24T10:53:21;14.10;70.30
75161;DHT22;67232;50.096;8.716;2023-04-24T10:58:35;14.20;70.20
75161;DHT22;67232;50.096;8.716;2023-04-24T11:01:03;14.10;70.60
75161;DHT22;67232;50.096;8.716;2023-04-24T11:03:31;14.00;71.20
75161;DHT22;67232;50.096;8.716;2023-04-24T11:11:08;14.60;72.90
75161;DHT22;67232;50.096;8.716;2023-04-24T11:16:34;15.60;67.70
75161;DHT22;67232;50.096;8.716;2023-04-24T11:21:48;18.00;62.30
75161;DHT22;67232;50.096;8.716;2023-04-24T11:27:19;17.40;61.90
75161;DHT22;67232;50.096;8.716;2023-04-24T11:29:59;16.70;63.70
75161;DHT22;67232;50.096;8.716;2023-04-24T11:32:27;16.70;63.40
75161;DHT22;67232;50.096;8.716;2023-04-24T11:34:57;16.70;63.40
75161;DHT22;67232;50.096;8.716;2023-04-24T11:37:26;16.80;63.70
75161;DHT22;67232;50.096;8.716;2023-04-24T11:39:56;16.70;62.90
75161;DHT22;67232;50.096;8.716;2023-04-24T11:42:22;16.70;62.20
75161;DHT22;67232;50.096;8.716;2023-04-24T11:44:49;16.90;62.60
75161;DHT22;67232;50.096;8.716;2023-04-24T11:47:19;17.00;61.60
75161;DHT22;67232;50.096;8.716;2023-04-24T11:49:50;17.90;62.00
75161;DHT22;67232;50.096;8.716;2023-04-24T11:52:21;19.70;55.50
75161;DHT22;67232;50.096;8.716;2023-04-24T11:54:48;21.70;51.70
75161;DHT22;67232;50.096;8.716;2023-04-24T11:57:14;22.70;49.20
75161;DHT22;67232;50.096;8.716;2023-04-24T11:59:44;23.50;47.90
75161;DHT22;67232;50.096;8.716;2023-04-24T12:02:28;22.90;47.90
75161;DHT22;67232;50.096;8.716;2023-04-24T12:04:54;21.50;49.10
75161;DHT22;67232;50.096;8.716;2023-04-24T12:07:23;20.10;52.40
75161;DHT22;67232;50.096;8.716;2023-04-24T12:10:01;20.00;52.20
75161;DHT22;67232;50.096;8.716;2023-04-24T12:12:27;19.30;53.70
75161;DHT22;67232;50.096;8.716;2023-04-24T12:14:55;19.00;53.20
75161;DHT22;67232;50.096;8.716;2023-04-24T12:17:27;18.60;54.00
75161;DHT22;67232;50.096;8.716;2023-04-24T12:19:56;18.90;53.50
75161;DHT22;67232;50.096;8.716;2023-04-24T12:22:22;18.50;53.70
75161;DHT22;67232;50.096;8.716;2023-04-24T12:25:02;18.00;56.70
75161;DHT22;67232;50.096;8.716;2023-04-24T12:27:34;17.50;57.70
75161;DHT22;67232;50.096;8.716;2023-04-24T12:30:03;16.70;62.00
75161;DHT22;67232;50.096;8.716;2023-04-24T12:32:29;16.20;66.00
75161;DHT22;67232;50.096;8.716;2023-04-24T12:34:55;16.20;66.40
75161;DHT22;67232;50.096;8.716;2023-04-24T12:37:23;16.30;66.50
75161;DHT22;67232;50.096;8.716;2023-04-24T12:40:19;16.00;66.80
75161;DHT22;67232;50.096;8.716;2023-04-24T12:42:49;15.70;67.00
75161;DHT22;67232;50.096;8.716;2023-04-24T12:45:18;15.50;67.10
75161;DHT22;67232;50.096;8.716;2023-04-24T12:47:51;15.50;67.40
75161;DHT22;67232;50.096;8.716;2023-04-24T12:50:16;15.60;67.90
75161;DHT22;67232;50.096;8.716;2023-04-24T12:52:43;15.70;66.10
75161;DHT22;67232;50.096;8.716;2023-04-24T12:55:09;15.60;67.30
75161;DHT22;67232;50.096;8.716;2023-04-24T12:57:35;15.80;66.50
75161;DHT22;67232;50.096;8.716;2023-04-24T13:00:01;15.90;65.90
75161;DHT22;67232;50.096;8.716;2023-04-24T13:02:28;16.30;65.60
75161;DHT22;67232;50.096;8.716;2023-04-24T13:04:57;16.50;65.40
75161;DHT22;67232;50.096;8.716;2023-04-24T13:07:26;16.90;63.60
75161;DHT22;67232;50.096;8.716;2023-04-24T13:09:56;17.00;63.50
75161;DHT22;67232;50.096;8.716;2023-04-24T13:12:23;17.10;63.50
75161;DHT22;67232;50.096;8.716;2023-04-24T13:14:54;16.90;63.10
75161;DHT22;67232;50.096;8.716;2023-04-24T13:17:19;17.10;62.50
75161;DHT22;67232;50.096;8.716;2023-04-24T13:19:49;17.10;64.20
75161;DHT22;67232;50.096;8.716;2023-04-24T13:22:17;17.40;63.30
75161;DHT22;67232;50.096;8.716;2023-04-24T13:24:46;17.40;62.30
75161;DHT22;67232;50.096;8.716;2023-04-24T13:27:14;17.40;61.30
75161;DHT22;67232;50.096;8.716;2023-04-24T13:29:39;16.60;61.00
75161;DHT22;67232;50.096;8.716;2023-04-24T13:32:06;16.80;60.40
75161;DHT22;67232;50.096;8.716;2023-04-24T13:34:31;17.00;59.70
75161;DHT22;67232;50.096;8.716;2023-04-24T13:36:59;17.20;58.80
75161;DHT22;67232;50.096;8.716;2023-04-24T13:39:25;17.10;58.20
75161;DHT22;67232;50.096;8.716;2023-04-24T13:41:51;16.80;58.10
75161;DHT22;67232;50.096;8.716;2023-04-24T13:44:17;16.60;57.20
75161;DHT22;67232;50.096;8.716;2023-04-24T13:46:47;16.10;58.00
75161;DHT22;67232;50.096;8.716;2023-04-24T13:49:13;15.80;59.00
75161;DHT22;67232;50.096;8.716;2023-04-24T13:51:40;15.70;60.30
75161;DHT22;67232;50.096;8.716;2023-04-24T13:54:06;15.80;60.80
75161;DHT22;67232;50.096;8.716;2023-04-24T13:56:31;15.70;60.60
75161;DHT22;67232;50.096;8.716;2023-04-24T13:58:57;15.80;61.30
75161;DHT22;67232;50.096;8.716;2023-04-24T14:01:23;16.20;60.70
75161;DHT22;67232;50.096;8.716;2023-04-24T14:03:53;16.00;59.80
75161;DHT22;67232;50.096;8.716;2023-04-24T14:06:21;16.00;59.60
75161;DHT22;67232;50.096;8.716;2023-04-24T14:08:47;15.90;60.70
75161;DHT22;67232;50.096;8.716;2023-04-24T14:11:12;16.00;60.20
75161;DHT22;67232;50.096;8.716;2023-04-24T14:13:39;15.80;60.40
75161;DHT22;67232;50.096;8.716;2023-04-24T14:16:06;15.80;62.00
75161;DHT22;67232;50.096;8.716;2023-04-24T14:18:31;15.80;62.00
75161;DHT22;67232;50.096;8.716;2023-04-24T14:20:57;16.00;62.10
75161;DHT22;67232;50.096;8.716;2023-04-24T14:23:22;16.20;62.00
75161;DHT22;67232;50.096;8.716;2023-04-24T14:25:50;16.40;61.50
75161;DHT22;67232;50.096;8.716;2023-04-24T14:28:18;16.40;61.20
75161;DHT22;67232;50.096;8.716;2023-04-24T14:30:44;16.30;60.80
75161;DHT22;67232;50.096;8.716;2023-04-24T14:33:10;16.30;60.80
75161;DHT22;67232;50.096;8.716;2023-04-24T14:35:36;16.40;61.20
75161;DHT22;67232;50.096;8.716;2023-04-24T14:38:01;16.60;60.50
75161;DHT22;67232;50.096;8.716;2023-04-24T14:40:29;16.50;60.20
75161;DHT22;67232;50.096;8.716;2023-04-24T14:42:56;16.40;61.30
75161;DHT22;67232;50.096;8.716;2023-04-24T14:45:23;16.20;61.80
75161;DHT22;67232;50.096;8.716;2023-04-24T14:47:49;16.40;61.60
75161;DHT22;67232;50.096;8.716;2023-04-24T14:50:15;16.30;60.70
75161;DHT22;67232;50.096;8.716;2023-04-24T14:52:41;16.10;60.60
75161;DHT22;67232;50.096;8.716;2023-04-24T14:55:07;15.80;60.60
75161;DHT22;67232;50.096;8.716;2023-04-24T14:57:33;15.50;60.90
75161;DHT22;67232;50.096;8.716;2023-04-24T14:59:59;15.30;62.90
75161;DHT22;67232;50.096;8.716;2023-04-24T15:02:24;15.50;62.30
75161;DHT22;67232;50.096;8.716;2023-04-24T15:04:50;15.90;63.40
75161;DHT22;67232;50.096;8.716;2023-04-24T15:07:15;16.00;61.30
75161;DHT22;67232;50.096;8.716;2023-04-24T15:09:41;15.70;61.60
75161;DHT22;67232;50.096;8.716;2023-04-24T15:12:08;15.70;62.50
75161;DHT22;67232;50.096;8.716;2023-04-24T15:14:33;15.80;61.40
75161;DHT22;67232;50.096;8.716;2023-04-24T15:17:01;15.90;61.10
75161;DHT22;67232;50.096;8.716;2023-04-24T15:19:27;15.80;60.60
75161;DHT22;67232;50.096;8.716;2023-04-24T15:21:52;15.90;58.90
75161;DHT22;67232;50.096;8.716;2023-04-24T15:24:18;15.80;59.50
75161;DHT22;67232;50.096;8.716;2023-04-24T15:26:43;16.00;59.50
75161;DHT22;67232;50.096;8.716;2023-04-24T15:29:09;16.30;58.60
75161;DHT22;67232;50.096;8.716;2023-04-24T15:31:35;16.30;59.20
75161;DHT22;67232;50.096;8.716;2023-04-24T15:34:04;16.30;58.20
75161;DHT22;67232;50.096;8.716;2023-04-24T15:36:30;16.40;57.90
75161;DHT22;67232;50.096;8.716;2023-04-24T15:38:56;16.30;57.40
75161;DHT22;67232;50.096;8.716;2023-04-24T15:41:21;16.10;57.60
75161;DHT22;67232;50.096;8.716;2023-04-24T15:43:47;16.10;57.70
75161;DHT22;67232;50.096;8.716;2023-04-24T15:46:15;16.20;58.00
75161;DHT22;67232;50.096;8.716;2023-04-24T15:48:44;16.10;57.70